Alt Rio Grande, Puerto Rico
Current Conditions -  °F | °C
As of 2:56 AM on Monday 24 Nov 2014 (Local Time) from TJSJ Reporting Station
Few Clouds Few Clouds  
Wind Chill: 79°   Ceiling: Unl
Heat Index: 82°   Visibility: 10mi
Dew Point: 74°   Wind: 7mph
Humidity: 84%   Direction: 90°E
Pressure: 29.97"   Gusts: NA
Location:  18.3817°N, 65.8302°W
Report Text: TJSJ 240656Z 09006KT 10SM FEW055 26/23 A2997 RMK AO2 SLP148 T02610233 $
Loading
Personal Weather Stations






























Interactive Weather Map New forecast layout! Learn more

10-Day Weather Forecast

Advertisements
Track Severe Weather on mobile